createdAt,value
2018-07-21T00:02:05.471Z,7.40
2018-07-21T00:04:35.187Z,7.77
2018-07-21T00:07:04.612Z,8.27
2018-07-21T00:09:34.011Z,8.03
2018-07-21T00:12:03.731Z,9.07
2018-07-21T00:14:33.330Z,7.87
2018-07-21T00:17:02.670Z,7.97
2018-07-21T00:19:32.031Z,8.07
2018-07-21T00:22:01.310Z,8.10
2018-07-21T00:24:30.711Z,8.40
2018-07-21T00:27:00.012Z,9.47
2018-07-21T00:29:29.412Z,8.57
2018-07-21T00:31:58.950Z,8.60
2018-07-21T00:34:28.330Z,8.63
2018-07-21T00:36:57.670Z,8.80
2018-07-21T00:39:27.030Z,8.57
2018-07-21T00:41:56.371Z,8.53
2018-07-21T00:44:26.111Z,9.10
2018-07-21T00:46:55.471Z,8.20
2018-07-21T00:49:25.190Z,8.13
2018-07-21T00:51:54.190Z,10.47
2018-07-21T00:54:23.573Z,9.10
2018-07-21T00:56:52.950Z,9.00
2018-07-21T00:59:22.291Z,7.67
2018-07-21T01:01:51.710Z,9.17
2018-07-21T01:04:21.090Z,9.40
2018-07-21T01:06:50.450Z,9.07
2018-07-21T01:09:19.852Z,9.30
2018-07-21T01:11:49.270Z,9.23
2018-07-21T01:14:18.611Z,9.10
2018-07-21T01:16:47.690Z,8.70
2018-07-21T01:19:16.791Z,9.17
2018-07-21T01:21:45.831Z,8.70
2018-07-21T01:24:15.151Z,8.87
2018-07-21T01:26:44.530Z,8.37
2018-07-21T01:29:13.891Z,9.23
2018-07-21T01:31:43.271Z,9.47
2018-07-21T01:34:13.090Z,9.73
2018-07-21T01:36:42.630Z,8.90
2018-07-21T01:39:12.371Z,9.37
2018-07-21T01:41:41.711Z,9.10
2018-07-21T01:44:11.051Z,8.77
2018-07-21T01:46:40.370Z,9.67
2018-07-21T01:49:09.971Z,10.07
2018-07-21T01:51:39.411Z,9.87
2018-07-21T01:54:08.971Z,10.10
2018-07-21T01:56:38.410Z,10.07
2018-07-21T01:59:08.311Z,9.77
2018-07-21T02:01:37.611Z,10.03
2018-07-21T02:04:07.131Z,11.23
2018-07-21T02:06:36.512Z,10.67
2018-07-21T02:09:09.071Z,12.23
2018-07-21T02:11:38.751Z,9.70
2018-07-21T02:14:08.611Z,10.10
2018-07-21T02:16:38.017Z,10.67
2018-07-21T02:19:07.491Z,11.17
2018-07-21T02:21:36.953Z,11.60
2018-07-21T02:24:06.531Z,9.90
2018-07-21T02:26:36.331Z,12.70
2018-07-21T02:29:05.716Z,12.67
2018-07-21T02:31:35.411Z,11.30
2018-07-21T02:34:04.851Z,11.47
2018-07-21T02:36:34.081Z,10.53
2018-07-21T02:39:04.675Z,10.50
2018-07-21T02:41:34.138Z,10.57
2018-07-21T02:44:03.970Z,10.73
2018-07-21T02:46:33.538Z,11.30
2018-07-21T02:49:02.629Z,11.57
2018-07-21T02:51:31.670Z,11.87
2018-07-21T02:54:00.991Z,12.17
2018-07-21T02:56:30.350Z,13.83
2018-07-21T02:58:59.634Z,16.47
2018-07-21T03:01:28.990Z,12.63
2018-07-21T03:03:58.631Z,11.83
2018-07-21T03:06:28.051Z,11.13
2018-07-21T03:08:57.410Z,11.90
2018-07-21T03:11:26.650Z,11.03
2018-07-21T03:13:56.031Z,11.87
2018-07-21T03:16:25.355Z,15.17
2018-07-21T03:18:54.850Z,12.37
2018-07-21T03:21:24.811Z,13.87
2018-07-21T03:23:54.056Z,13.93
2018-07-21T03:26:23.490Z,17.07
2018-07-21T03:28:52.957Z,15.40
2018-07-21T03:31:22.432Z,13.97
2018-07-21T03:33:51.830Z,15.43
2018-07-21T03:36:21.257Z,15.23
2018-07-21T03:38:50.613Z,15.17
2018-07-21T03:41:19.871Z,14.43
2018-07-21T03:43:49.104Z,15.60
2018-07-21T03:46:18.430Z,14.60
2018-07-21T03:48:47.870Z,15.13
2018-07-21T03:51:16.930Z,15.30
2018-07-21T03:53:46.330Z,13.57
2018-07-21T03:56:15.730Z,14.37
2018-07-21T03:58:45.011Z,15.40
2018-07-21T04:01:14.370Z,14.43
2018-07-21T04:03:43.831Z,14.30
2018-07-21T04:06:13.251Z,14.90
2018-07-21T04:08:42.610Z,14.43
2018-07-21T04:11:12.073Z,14.90
2018-07-21T04:13:41.531Z,13.77
2018-07-21T04:16:11.111Z,13.00
2018-07-21T04:18:40.751Z,12.33
2018-07-21T04:21:10.131Z,10.60
2018-07-21T04:23:40.031Z,12.13
2018-07-21T04:26:09.371Z,9.83
2018-07-21T04:28:38.751Z,9.77
2018-07-21T04:31:08.350Z,9.30
2018-07-21T04:33:37.670Z,9.30
2018-07-21T04:36:07.570Z,9.17
2018-07-21T04:38:37.391Z,9.57
2018-07-21T04:41:06.850Z,9.30
2018-07-21T04:43:36.231Z,8.93
2018-07-21T04:46:05.731Z,9.53
2018-07-21T04:48:35.051Z,8.83
2018-07-21T04:51:04.471Z,8.30
2018-07-21T04:53:33.850Z,8.80
2018-07-21T04:56:03.271Z,8.73
2018-07-21T04:58:32.850Z,8.83
2018-07-21T05:01:02.596Z,8.37
2018-07-21T05:03:31.950Z,8.67
2018-07-21T05:06:01.531Z,8.80
2018-07-21T05:08:30.970Z,8.83
2018-07-21T05:11:00.290Z,8.37
2018-07-21T05:13:29.830Z,8.50
2018-07-21T05:15:59.390Z,8.60
2018-07-21T05:18:28.950Z,9.33
2018-07-21T05:20:58.570Z,10.08
2018-07-21T05:23:27.930Z,10.18
2018-07-21T05:25:57.350Z,10.95
2018-07-21T05:28:27.150Z,11.48
2018-07-21T05:30:56.570Z,11.45
2018-07-21T05:33:26.063Z,10.03
2018-07-21T05:35:55.611Z,10.82
2018-07-21T05:38:25.104Z,10.35
2018-07-21T05:40:54.670Z,10.88
2018-07-21T05:43:24.151Z,11.40
2018-07-21T05:45:53.751Z,11.40
2018-07-21T05:48:23.010Z,11.93
2018-07-21T05:50:52.519Z,11.93
2018-07-21T05:53:21.911Z,11.80
2018-07-21T05:55:51.451Z,10.93
2018-07-21T05:58:20.811Z,11.23
2018-07-21T06:00:50.356Z,10.50
2018-07-21T06:03:19.811Z,9.83
2018-07-21T06:05:49.131Z,9.70
2018-07-21T06:08:18.372Z,10.70
2018-07-21T06:10:48.011Z,10.97
2018-07-21T06:13:17.452Z,10.47
2018-07-21T06:15:47.011Z,11.10
2018-07-21T06:18:16.633Z,9.83
2018-07-21T06:20:46.111Z,10.63
2018-07-21T06:23:15.532Z,10.60
2018-07-21T06:25:45.012Z,9.67
2018-07-21T06:28:14.354Z,10.13
2018-07-21T06:30:43.851Z,10.27
2018-07-21T06:33:13.371Z,17.23
2018-07-21T06:35:42.831Z,11.53
2018-07-21T06:38:12.351Z,10.27
2018-07-21T06:40:41.851Z,10.50
2018-07-21T06:43:11.389Z,10.10
2018-07-21T06:45:41.111Z,9.77
2018-07-21T06:48:10.611Z,9.57
2018-07-21T06:50:40.391Z,9.60
2018-07-21T06:53:09.751Z,10.03
2018-07-21T06:55:39.351Z,10.30
2018-07-21T06:58:08.831Z,10.13
2018-07-21T07:00:38.231Z,9.20
2018-07-21T07:03:07.551Z,9.50
2018-07-21T07:05:36.931Z,9.83
2018-07-21T07:08:06.574Z,9.77
2018-07-21T07:10:35.550Z,9.30
2018-07-21T07:13:04.931Z,9.40
2018-07-21T07:15:34.271Z,9.33
2018-07-21T07:18:03.331Z,9.90
2018-07-21T07:20:32.771Z,9.40
2018-07-21T07:23:02.134Z,9.53
2018-07-21T07:25:31.650Z,8.93
2018-07-21T07:28:00.971Z,9.17
2018-07-21T07:30:30.915Z,9.43
2018-07-21T07:33:00.396Z,9.90
2018-07-21T07:35:29.471Z,9.83
2018-07-21T07:37:58.551Z,12.47
2018-07-21T07:40:27.973Z,23.27
2018-07-21T07:42:57.331Z,17.77
2018-07-21T07:45:26.691Z,10.03
2018-07-21T07:47:55.731Z,11.77
2018-07-21T07:50:25.131Z,20.40
2018-07-21T07:52:54.471Z,12.13
2018-07-21T07:55:24.651Z,10.37
2018-07-21T07:57:54.271Z,9.30
2018-07-21T08:00:23.705Z,10.67
2018-07-21T08:02:53.212Z,10.67
2018-07-21T08:05:22.391Z,13.30
2018-07-21T08:07:51.631Z,10.00
2018-07-21T08:10:21.091Z,9.80
2018-07-21T08:12:51.111Z,9.53
2018-07-21T08:15:21.331Z,9.47
2018-07-21T08:17:51.151Z,10.43
2018-07-21T08:20:20.531Z,17.10
2018-07-21T08:22:49.971Z,10.60
2018-07-21T08:25:19.251Z,12.90
2018-07-21T08:27:48.691Z,17.07
2018-07-21T08:30:18.031Z,9.83
2018-07-21T08:32:47.594Z,32.57
2018-07-21T08:35:17.411Z,15.90
2018-07-21T08:37:47.330Z,19.37
2018-07-21T08:40:16.951Z,9.63
2018-07-21T08:42:46.372Z,8.73
2018-07-21T08:45:15.912Z,9.13
2018-07-21T08:47:45.411Z,9.30
2018-07-21T08:50:14.932Z,9.37
2018-07-21T08:52:44.431Z,8.83
2018-07-21T08:55:13.891Z,9.30
2018-07-21T08:57:43.432Z,9.50
2018-07-21T09:00:12.915Z,9.03
2018-07-21T09:02:42.251Z,9.63
2018-07-21T09:05:11.691Z,8.83
2018-07-21T09:07:41.051Z,9.27
2018-07-21T09:10:10.871Z,9.23
2018-07-21T09:12:40.351Z,9.70
2018-07-21T09:15:09.717Z,9.60
2018-07-21T09:17:39.131Z,9.03
2018-07-21T09:20:08.612Z,8.43
2018-07-21T09:22:38.055Z,9.27
2018-07-21T09:25:08.771Z,9.13
2018-07-21T09:27:38.371Z,8.78
2018-07-21T09:30:07.892Z,9.25
2018-07-21T09:32:37.211Z,10.20
2018-07-21T09:35:06.571Z,8.68
2018-07-21T09:37:36.151Z,8.63
2018-07-21T09:40:06.295Z,9.08
2018-07-21T09:42:35.971Z,8.35
2018-07-21T09:45:06.031Z,8.13
2018-07-21T09:47:35.352Z,8.18
2018-07-21T09:50:06.491Z,8.45
2018-07-21T09:52:35.953Z,8.90
2018-07-21T09:55:06.931Z,9.17
2018-07-21T09:57:36.723Z,9.17
2018-07-21T10:00:10.526Z,8.43
2018-07-21T10:02:39.844Z,9.57
2018-07-21T10:05:09.464Z,9.47
2018-07-21T10:07:38.924Z,10.03
2018-07-21T10:10:08.244Z,9.33
2018-07-21T10:12:37.684Z,9.40
2018-07-21T10:15:07.265Z,9.70
2018-07-21T10:17:36.645Z,9.57
2018-07-21T10:20:06.531Z,9.53
2018-07-21T10:22:36.328Z,10.40
2018-07-21T10:25:11.287Z,9.60
2018-07-21T10:27:45.925Z,8.93
2018-07-21T10:30:15.380Z,9.20
2018-07-21T10:32:44.805Z,9.07
2018-07-21T10:35:13.865Z,9.87
2018-07-21T10:37:43.225Z,9.70
2018-07-21T10:40:12.585Z,9.93
2018-07-21T10:42:42.645Z,11.27
2018-07-21T10:45:12.085Z,10.87
2018-07-21T10:47:41.188Z,10.33
2018-07-21T10:50:10.324Z,9.30
2018-07-21T10:52:39.744Z,9.50
2018-07-21T10:55:09.184Z,9.47
2018-07-21T10:57:38.884Z,9.30
2018-07-21T11:00:08.653Z,8.33
2018-07-21T11:02:38.046Z,9.10
2018-07-21T11:05:09.352Z,8.20
2018-07-21T11:07:38.985Z,9.00
2018-07-21T11:10:08.405Z,8.97
2018-07-21T11:12:37.865Z,8.97
2018-07-21T11:15:09.466Z,7.53
2018-07-21T11:17:38.925Z,8.90
2018-07-21T11:20:08.447Z,8.80
2018-07-21T11:22:38.165Z,8.20
2018-07-21T11:25:08.345Z,8.53
2018-07-21T11:27:37.805Z,8.50
2018-07-21T11:30:07.807Z,7.90
2018-07-21T11:32:37.205Z,7.83
2018-07-21T11:35:06.624Z,7.50
2018-07-21T11:37:36.048Z,7.03
2018-07-21T11:40:05.865Z,8.30
2018-07-21T11:42:35.245Z,8.20
2018-07-21T11:45:04.965Z,7.80
2018-07-21T11:47:34.385Z,7.07
2018-07-21T11:50:03.845Z,7.40
2018-07-21T11:52:33.285Z,7.77
2018-07-21T11:55:02.929Z,7.90
2018-07-21T11:57:32.185Z,7.63
2018-07-21T12:00:01.546Z,7.57
2018-07-21T12:02:30.545Z,7.13
2018-07-21T12:04:59.887Z,7.43
2018-07-21T12:07:29.165Z,7.33
2018-07-21T12:09:58.665Z,7.07
2018-07-21T12:12:28.205Z,8.30
2018-07-21T12:14:57.945Z,8.30
2018-07-21T12:17:27.446Z,8.00
2018-07-21T12:19:56.849Z,7.70
2018-07-21T12:22:26.229Z,8.10
2018-07-21T12:24:55.748Z,8.00
2018-07-21T12:27:25.337Z,7.93
2018-07-21T12:29:54.651Z,9.00
2018-07-21T12:32:24.224Z,8.03
2018-07-21T12:34:53.724Z,7.33
2018-07-21T12:37:23.064Z,8.30
2018-07-21T12:39:52.392Z,6.97
2018-07-21T12:42:22.579Z,7.77
2018-07-21T12:44:52.362Z,7.57
2018-07-21T12:47:21.963Z,7.47
2018-07-21T12:49:51.426Z,7.80
2018-07-21T12:52:20.779Z,8.40
2018-07-21T12:54:50.435Z,7.70
2018-07-21T12:57:19.715Z,7.97
2018-07-21T12:59:49.076Z,8.57
2018-07-21T13:02:18.515Z,7.97
2018-07-21T13:04:47.916Z,8.50
2018-07-21T13:07:17.095Z,8.73
2018-07-21T13:09:46.537Z,8.43
2018-07-21T13:12:15.975Z,8.50
2018-07-21T13:14:45.407Z,8.20
2018-07-21T13:17:15.029Z,8.00
2018-07-21T13:19:44.174Z,8.60
2018-07-21T13:22:13.646Z,7.47
2018-07-21T13:24:43.728Z,8.30
2018-07-21T13:27:13.108Z,8.30
2018-07-21T13:29:42.744Z,8.47
2018-07-21T13:32:12.665Z,8.03
2018-07-21T13:34:42.030Z,8.20
2018-07-21T13:37:11.369Z,8.73
2018-07-21T13:39:41.070Z,7.40
2018-07-21T13:42:10.950Z,7.83
2018-07-21T13:44:40.289Z,8.17
2018-07-21T13:47:09.629Z,9.03
2018-07-21T13:49:39.049Z,8.67
2018-07-21T13:52:08.450Z,9.50
2018-07-21T13:54:37.569Z,8.87
2018-07-21T13:57:07.009Z,9.73
2018-07-21T13:59:36.408Z,9.40
2018-07-21T14:02:05.800Z,9.00
2018-07-21T14:04:35.149Z,9.37
2018-07-21T14:07:04.189Z,9.60
2018-07-21T14:09:33.790Z,10.00
2018-07-21T14:12:03.107Z,10.30
2018-07-21T14:14:32.446Z,10.17
2018-07-21T14:17:01.867Z,10.63
2018-07-21T14:19:31.526Z,10.10
2018-07-21T14:22:01.005Z,9.40
2018-07-21T14:24:30.613Z,10.70
2018-07-21T14:26:59.605Z,9.93
2018-07-21T14:29:29.060Z,9.67
2018-07-21T14:31:58.438Z,10.60
2018-07-21T14:34:27.937Z,9.87
2018-07-21T14:36:57.377Z,10.40
2018-07-21T14:39:26.817Z,10.53
2018-07-21T14:41:56.179Z,10.27
2018-07-21T14:44:25.565Z,10.23
2018-07-21T14:46:55.021Z,10.97
2018-07-21T14:49:24.441Z,10.93
2018-07-21T14:51:53.788Z,10.37
2018-07-21T14:54:23.255Z,11.27
2018-07-21T14:56:52.678Z,11.33
2018-07-21T14:59:22.231Z,10.23
2018-07-21T15:01:51.731Z,12.03
2018-07-21T15:04:21.171Z,11.67
2018-07-21T15:06:50.938Z,11.27
2018-07-21T15:09:20.416Z,11.40
2018-07-21T15:11:50.036Z,11.33
2018-07-21T15:14:20.515Z,10.40
2018-07-21T15:16:49.884Z,10.83
2018-07-21T15:19:19.287Z,10.70
2018-07-21T15:21:48.606Z,11.07
2018-07-21T15:24:17.953Z,11.87
2018-07-21T15:26:47.374Z,11.13
2018-07-21T15:29:16.794Z,12.47
2018-07-21T15:31:46.236Z,12.03
2018-07-21T15:34:15.612Z,12.60
2018-07-21T15:36:45.332Z,12.77
2018-07-21T15:39:15.140Z,12.70
2018-07-21T15:41:44.676Z,12.77
2018-07-21T15:44:14.134Z,12.67
2018-07-21T15:46:43.472Z,12.83
2018-07-21T15:49:12.975Z,13.10
2018-07-21T15:51:42.492Z,12.83
2018-07-21T15:54:11.819Z,12.80
2018-07-21T15:56:41.424Z,13.60
2018-07-21T15:59:10.805Z,12.33
2018-07-21T16:01:40.205Z,12.13
2018-07-21T16:04:09.743Z,12.10
2018-07-21T16:06:39.245Z,13.70
2018-07-21T16:09:10.643Z,12.53
2018-07-21T16:11:40.565Z,11.97
2018-07-21T16:14:09.938Z,10.97
2018-07-21T16:16:39.331Z,11.90
2018-07-21T16:19:08.719Z,11.37
2018-07-21T16:21:38.031Z,12.03
2018-07-21T16:24:07.362Z,13.03
2018-07-21T16:26:36.676Z,11.33
2018-07-21T16:29:06.062Z,12.57
2018-07-21T16:31:35.515Z,11.97
2018-07-21T16:34:05.043Z,12.13
2018-07-21T16:36:34.482Z,11.90
2018-07-21T16:39:05.842Z,12.50
2018-07-21T16:41:35.284Z,11.67
2018-07-21T16:44:04.684Z,11.47
2018-07-21T16:46:33.823Z,11.10
2018-07-21T16:49:03.423Z,11.53
2018-07-21T16:51:32.763Z,12.77
2018-07-21T16:54:02.237Z,11.50
2018-07-21T16:56:31.602Z,11.70
2018-07-21T16:59:00.922Z,11.07
2018-07-21T17:01:30.762Z,12.23
2018-07-21T17:04:00.363Z,11.20
2018-07-21T17:06:29.782Z,11.80
2018-07-21T17:08:59.162Z,10.47
2018-07-21T17:11:28.964Z,10.80
2018-07-21T17:13:58.622Z,11.40
2018-07-21T17:16:28.022Z,11.43
2018-07-21T17:18:57.405Z,11.67
2018-07-21T17:21:26.843Z,11.50
2018-07-21T17:23:56.262Z,11.03
2018-07-21T17:26:26.182Z,10.73
2018-07-21T17:28:55.906Z,11.17
2018-07-21T17:31:25.482Z,10.47
2018-07-21T17:33:55.242Z,11.07
2018-07-21T17:36:24.587Z,10.93
2018-07-21T17:38:54.502Z,12.17
2018-07-21T17:41:24.354Z,11.77
2018-07-21T17:43:53.791Z,11.87
2018-07-21T17:46:23.058Z,11.13
2018-07-21T17:48:52.513Z,12.40
2018-07-21T17:51:21.923Z,11.70
2018-07-21T17:53:51.605Z,11.57
2018-07-21T17:56:21.366Z,11.30
2018-07-21T17:58:50.746Z,11.20
2018-07-21T18:01:20.285Z,11.53
2018-07-21T18:03:49.687Z,11.03
2018-07-21T18:06:19.150Z,9.77
2018-07-21T18:08:48.683Z,10.20
2018-07-21T18:11:18.343Z,9.83
2018-07-21T18:13:48.043Z,9.50
2018-07-21T18:16:17.423Z,9.53
2018-07-21T18:18:46.822Z,9.17
2018-07-21T18:21:16.882Z,8.90
2018-07-21T18:23:46.283Z,9.27
2018-07-21T18:26:15.645Z,8.93
2018-07-21T18:28:44.983Z,8.33
2018-07-21T18:31:14.284Z,7.93
2018-07-21T18:33:43.664Z,6.90
2018-07-21T18:36:13.143Z,6.57
2018-07-21T18:38:42.684Z,6.73
2018-07-21T18:41:11.963Z,6.80
2018-07-21T18:43:41.582Z,7.20
2018-07-21T18:46:10.925Z,6.77
2018-07-21T18:48:40.463Z,6.67
2018-07-21T18:51:10.129Z,6.60
2018-07-21T18:53:39.427Z,6.03
2018-07-21T18:56:08.968Z,6.00
2018-07-21T18:58:38.507Z,5.67
2018-07-21T19:01:09.127Z,6.13
2018-07-21T19:03:38.507Z,5.50
2018-07-21T19:06:07.827Z,5.50
2018-07-21T19:08:42.928Z,5.90
2018-07-21T19:11:12.187Z,5.63
2018-07-21T19:13:41.547Z,5.60
2018-07-21T19:16:16.272Z,5.93
2018-07-21T19:18:45.607Z,6.00
2018-07-21T19:21:18.526Z,5.50
2018-07-21T19:23:48.908Z,6.13
2018-07-21T19:26:23.807Z,5.83
2018-07-21T19:28:53.408Z,6.03
2018-07-21T19:31:22.807Z,6.03
2018-07-21T19:33:52.207Z,5.90
2018-07-21T19:36:21.567Z,6.07
2018-07-21T19:38:50.889Z,6.20
2018-07-21T19:41:25.375Z,6.83
2018-07-21T19:43:54.787Z,6.47
2018-07-21T19:46:24.207Z,6.70
2018-07-21T19:48:53.630Z,5.93
2018-07-21T19:51:22.896Z,6.87
2018-07-21T19:53:52.511Z,6.70
2018-07-21T19:56:21.787Z,6.43
2018-07-21T19:58:51.148Z,6.10
2018-07-21T20:01:20.487Z,6.57
2018-07-21T20:03:49.770Z,6.70
2018-07-21T20:06:19.348Z,6.70
2018-07-21T20:08:48.927Z,6.20
2018-07-21T20:11:18.514Z,6.10
2018-07-21T20:13:48.141Z,6.57
2018-07-21T20:16:17.607Z,7.07
2018-07-21T20:18:47.007Z,6.47
2018-07-21T20:21:16.416Z,6.23
2018-07-21T20:23:45.787Z,6.67
2018-07-21T20:26:15.027Z,6.30
2018-07-21T20:28:44.467Z,5.83
2018-07-21T20:31:13.847Z,7.03
2018-07-21T20:33:43.187Z,6.60
2018-07-21T20:36:12.507Z,6.00
2018-07-21T20:38:41.729Z,5.63
2018-07-21T20:41:11.147Z,5.97
2018-07-21T20:43:40.588Z,5.27
2018-07-21T20:46:09.988Z,5.70
2018-07-21T20:48:39.347Z,5.30
2018-07-21T20:51:09.267Z,5.33
2018-07-21T20:53:38.870Z,5.00
2018-07-21T20:56:08.388Z,5.40
2018-07-21T20:58:37.393Z,5.40
2018-07-21T21:01:07.152Z,5.23
2018-07-21T21:03:36.596Z,5.10
2018-07-21T21:06:06.188Z,5.20
2018-07-21T21:08:35.517Z,4.87
2018-07-21T21:11:04.839Z,4.53
2018-07-21T21:13:34.140Z,4.33
2018-07-21T21:16:03.458Z,4.93
2018-07-21T21:18:33.317Z,4.60
2018-07-21T21:21:02.697Z,5.57
2018-07-21T21:23:32.017Z,5.93
2018-07-21T21:26:01.677Z,5.53
2018-07-21T21:28:31.597Z,4.90
2018-07-21T21:31:01.034Z,5.13
2018-07-21T21:33:30.077Z,5.20
2018-07-21T21:35:59.597Z,5.40
2018-07-21T21:38:29.237Z,4.67
2018-07-21T21:40:58.877Z,4.90
2018-07-21T21:43:28.237Z,4.80
2018-07-21T21:45:57.657Z,5.10
2018-07-21T21:48:26.758Z,5.07
2018-07-21T21:50:55.759Z,4.97
2018-07-21T21:53:25.196Z,4.70
2018-07-21T21:55:55.117Z,4.87
2018-07-21T21:58:24.477Z,5.03
2018-07-21T22:01:09.924Z,4.43
2018-07-21T22:03:39.437Z,4.67
2018-07-21T22:06:08.834Z,4.70
2018-07-21T22:08:38.317Z,4.70
2018-07-21T22:11:07.712Z,4.80
2018-07-21T22:13:37.405Z,5.30
2018-07-21T22:16:07.025Z,5.13
2018-07-21T22:18:36.826Z,4.70
2018-07-21T22:21:06.465Z,4.63
2018-07-21T22:23:35.965Z,4.07
2018-07-21T22:26:05.685Z,4.90
2018-07-21T22:28:34.926Z,4.97
2018-07-21T22:31:04.687Z,4.70
2018-07-21T22:33:34.025Z,4.80
2018-07-21T22:36:03.485Z,4.77
2018-07-21T22:38:32.826Z,4.83
2018-07-21T22:41:02.165Z,4.83
2018-07-21T22:43:31.566Z,4.77
2018-07-21T22:46:00.908Z,4.47
2018-07-21T22:48:30.285Z,4.97
2018-07-21T22:50:59.705Z,4.50
2018-07-21T22:53:29.046Z,4.80
2018-07-21T22:55:58.425Z,5.30
2018-07-21T22:58:27.845Z,4.70
2018-07-21T23:00:57.213Z,4.90
2018-07-21T23:03:26.590Z,4.17
2018-07-21T23:05:56.029Z,4.90
2018-07-21T23:08:25.346Z,4.60
2018-07-21T23:10:54.372Z,4.70
2018-07-21T23:13:23.359Z,4.63
2018-07-21T23:15:52.769Z,4.70
2018-07-21T23:18:22.129Z,4.73
2018-07-21T23:20:51.489Z,4.70
2018-07-21T23:23:20.909Z,4.60
2018-07-21T23:25:50.392Z,4.43
2018-07-21T23:28:19.729Z,4.30
2018-07-21T23:30:49.322Z,4.23
2018-07-21T23:33:18.869Z,4.67
2018-07-21T23:35:48.409Z,5.13
2018-07-21T23:38:17.869Z,4.37
2018-07-21T23:40:47.509Z,4.50
2018-07-21T23:43:16.884Z,4.73
2018-07-21T23:45:46.376Z,5.07
2018-07-21T23:48:15.869Z,4.63
2018-07-21T23:50:45.168Z,4.93
2018-07-21T23:53:14.649Z,4.63
2018-07-21T23:55:44.136Z,4.93
2018-07-21T23:58:13.449Z,4.97
